Time;durP1;ratioP1;P1;durP2;ratioP2;P2;SDS_P1;SDS_P2;PMS_P1;PMS_P2;Temp;Humidity;BMP_temperature;BMP_pressure;BME280_temperature;BME280_humidity;BME280_pressure;Samples;Min_cycle;Max_cycle;Signal;HPM_P1;HPM_P2
2022/11/25 00:01:42;;;;;;;4.93;1.83;;;9.20;99.90;;;;;;5089214;28;20196;-72
2022/11/25 00:04:08;;;;;;;5.43;2.13;;;9.20;99.90;;;;;;5056254;28;20177;-72
2022/11/25 00:06:35;;;;;;;4.33;2.00;;;9.20;99.90;;;;;;5094968;28;20195;-72
2022/11/25 00:09:08;;;;;;;6.27;1.80;;;9.20;99.90;;;;;;5056596;28;20258;-72
2022/11/25 00:11:35;;;;;;;4.07;1.60;;;9.20;99.90;;;;;;5094720;28;20196;-71
2022/11/25 00:14:01;;;;;;;4.03;1.77;;;9.20;99.90;;;;;;5091242;28;20192;-72
2022/11/25 00:16:26;;;;;;;5.40;2.00;;;9.20;99.90;;;;;;5094135;28;20176;-72
2022/11/25 00:18:56;;;;;;;3.77;1.70;;;9.20;99.90;;;;;;5060568;28;20180;-71
2022/11/25 00:21:24;;;;;;;4.43;1.83;;;9.10;99.90;;;;;;5059377;28;20305;-71
2022/11/25 00:23:55;;;;;;;5.13;1.60;;;9.20;99.90;;;;;;5092829;28;20211;-72
2022/11/25 00:26:23;;;;;;;6.53;1.97;;;9.10;99.90;;;;;;5090625;28;20169;-71
2022/11/25 00:28:49;;;;;;;3.93;1.80;;;9.20;99.90;;;;;;5091631;28;20172;-72
2022/11/25 00:31:21;;;;;;;5.50;1.60;;;9.10;99.90;;;;;;5098301;28;20177;-73
2022/11/25 00:33:48;;;;;;;4.10;1.90;;;9.10;99.90;;;;;;5059682;28;20172;-72
2022/11/25 00:36:19;;;;;;;6.73;2.33;;;9.20;99.90;;;;;;5094321;28;20173;-70
2022/11/25 00:38:51;;;;;;;5.30;2.00;;;9.10;99.90;;;;;;5093634;28;20172;-72
2022/11/25 00:46:58;;;;;;;5.93;2.10;;;9.10;99.90;;;;;;5077147;28;20238;-71
2022/11/25 00:49:23;;;;;;;4.73;2.00;;;9.10;99.90;;;;;;5092439;28;20195;-71
2022/11/25 00:51:49;;;;;;;6.37;2.10;;;9.10;99.90;;;;;;5059608;28;20173;-72
2022/11/25 00:54:15;;;;;;;4.87;1.60;;;9.10;99.90;;;;;;5093583;28;20172;-71
2022/11/25 00:56:43;;;;;;;5.00;2.10;;;9.10;99.90;;;;;;5093563;28;20184;-71
2022/11/25 00:59:08;;;;;;;7.43;2.27;;;9.20;99.90;;;;;;5092375;28;20191;-71
2022/11/25 01:01:39;;;;;;;5.47;1.90;;;9.10;99.90;;;;;;5094786;28;20199;-71
2022/11/25 01:04:05;;;;;;;3.83;1.80;;;9.20;99.90;;;;;;5092449;28;20256;-71
2022/11/25 01:06:32;;;;;;;4.37;1.80;;;9.20;99.90;;;;;;5092946;28;20172;-71
2022/11/25 01:08:57;;;;;;;4.63;1.83;;;9.20;99.90;;;;;;5089363;28;20225;-71
2022/11/25 01:11:23;;;;;;;5.20;2.00;;;9.30;99.90;;;;;;5092713;28;20180;-71
2022/11/25 01:13:49;;;;;;;7.17;2.13;;;9.20;99.90;;;;;;5095639;28;20180;-71
2022/11/25 01:16:18;;;;;;;4.70;2.10;;;9.30;99.90;;;;;;5090712;28;20343;-71
2022/11/25 01:18:44;;;;;;;4.03;1.90;;;9.20;99.90;;;;;;5058112;28;20172;-71
2022/11/25 01:21:14;;;;;;;5.60;1.97;;;9.20;99.90;;;;;;5091761;28;20219;-71
2022/11/25 01:23:40;;;;;;;5.00;1.80;;;9.30;99.90;;;;;;5059541;28;20172;-71
2022/11/25 01:26:11;;;;;;;5.17;1.87;;;9.30;99.90;;;;;;5088510;28;20180;-71
2022/11/25 01:28:40;;;;;;;5.37;1.63;;;9.30;99.90;;;;;;5089866;28;20322;-71
2022/11/25 01:31:13;;;;;;;5.50;1.90;;;9.30;99.90;;;;;;5074965;28;20315;-72
2022/11/25 01:33:40;;;;;;;4.90;2.43;;;9.40;99.90;;;;;;5093958;28;20275;-70
2022/11/25 01:36:17;;;;;;;5.17;2.00;;;9.30;99.90;;;;;;5092765;28;20234;-72
2022/11/25 01:38:43;;;;;;;6.77;1.80;;;9.30;99.90;;;;;;5091570;28;20176;-71
2022/11/25 01:41:13;;;;;;;4.03;1.77;;;9.30;99.90;;;;;;5056091;28;20218;-71
2022/11/25 01:43:39;;;;;;;5.93;2.13;;;9.40;99.90;;;;;;5055902;28;20184;-71
2022/11/25 01:46:24;;;;;;;4.70;1.73;;;9.40;99.90;;;;;;5090539;28;20181;-71
2022/11/25 01:48:57;;;;;;;4.20;1.80;;;9.40;99.90;;;;;;5091310;28;20191;-72
2022/11/25 01:51:33;;;;;;;5.17;2.40;;;9.50;99.90;;;;;;5090814;28;20180;-71
2022/11/25 01:54:04;;;;;;;5.70;2.00;;;9.50;99.90;;;;;;5060768;28;20167;-71
2022/11/25 01:56:37;;;;;;;5.97;1.90;;;9.60;99.90;;;;;;5090295;28;20196;-70
2022/11/25 01:59:05;;;;;;;4.17;1.83;;;9.60;99.90;;;;;;5090212;28;20172;-71
2022/11/25 02:01:33;;;;;;;4.90;2.07;;;9.60;99.90;;;;;;5089414;28;20196;-71
2022/11/25 02:03:59;;;;;;;5.00;1.80;;;9.60;99.90;;;;;;5090722;28;20180;-72
2022/11/25 02:06:44;;;;;;;6.53;2.10;;;9.60;99.90;;;;;;5092345;28;20238;-69
2022/11/25 02:09:09;;;;;;;6.23;2.00;;;9.70;99.90;;;;;;5059664;28;20443;-71
2022/11/25 02:11:39;;;;;;;6.07;2.20;;;9.80;99.90;;;;;;5090655;28;20192;-71
2022/11/25 02:14:07;;;;;;;4.67;1.80;;;9.80;99.90;;;;;;5091720;28;20172;-70
2022/11/25 02:16:33;;;;;;;4.27;1.70;;;9.90;99.90;;;;;;5055483;28;20208;-70
2022/11/25 02:18:59;;;;;;;4.67;1.93;;;10.00;99.90;;;;;;5091261;28;20201;-71
2022/11/25 02:21:32;;;;;;;3.20;1.73;;;9.90;99.90;;;;;;5057251;28;20207;-71
2022/11/25 02:24:23;;;;;;;6.77;2.10;;;10.00;99.90;;;;;;5058262;28;20172;-70
2022/11/25 02:26:49;;;;;;;3.50;1.70;;;10.10;99.90;;;;;;5045079;28;20188;-70
2022/11/25 02:29:16;;;;;;;4.10;2.10;;;10.10;99.90;;;;;;5089746;28;20207;-70
2022/11/25 02:31:43;;;;;;;5.10;2.10;;;10.10;99.90;;;;;;5089353;28;20263;-71
2022/11/25 02:34:11;;;;;;;5.50;1.90;;;10.10;99.90;;;;;;5090748;28;20272;-70
2022/11/25 02:36:39;;;;;;;3.38;1.85;;;10.10;99.90;;;;;;5090882;28;20172;-71
2022/11/25 02:39:06;;;;;;;5.55;2.10;;;10.20;99.90;;;;;;5061964;28;20180;-71
2022/11/25 02:41:33;;;;;;;8.45;2.13;;;10.20;99.90;;;;;;5091190;28;20200;-71
2022/11/25 02:44:00;;;;;;;6.82;2.13;;;10.30;99.90;;;;;;5090677;28;20171;-70
2022/11/25 02:46:27;;;;;;;7.60;2.50;;;10.30;99.90;;;;;;5089900;28;20227;-70
2022/11/25 02:48:55;;;;;;;4.95;2.10;;;10.30;99.90;;;;;;5060780;28;20203;-71
2022/11/25 02:51:24;;;;;;;4.03;2.00;;;10.30;99.90;;;;;;5092742;28;20181;-70
2022/11/25 02:53:53;;;;;;;5.05;2.00;;;10.30;99.90;;;;;;5088760;28;20185;-71
2022/11/25 02:56:21;;;;;;;5.53;2.00;;;10.30;99.90;;;;;;5089763;28;20176;-71
2022/11/25 02:58:46;;;;;;;5.93;2.00;;;10.30;99.90;;;;;;5089831;28;20172;-71
2022/11/25 03:01:12;;;;;;;5.10;2.13;;;10.30;99.90;;;;;;5092976;28;20222;-70
2022/11/25 03:03:38;;;;;;;5.07;2.03;;;10.30;99.90;;;;;;5088827;28;20173;-71
2022/11/25 03:06:06;;;;;;;6.23;2.03;;;10.30;99.90;;;;;;5092217;28;20168;-70
2022/11/25 03:08:32;;;;;;;4.93;1.97;;;10.30;99.90;;;;;;5089660;28;20165;-71
2022/11/25 03:10:59;;;;;;;4.97;1.97;;;10.30;99.90;;;;;;5094500;28;20195;-71
2022/11/25 03:13:25;;;;;;;3.15;1.60;;;10.30;99.90;;;;;;5089257;28;20176;-71
2022/11/25 03:15:53;;;;;;;3.93;1.63;;;10.30;99.90;;;;;;5091472;28;20172;-71
2022/11/25 03:18:22;;;;;;;6.07;1.70;;;10.30;99.90;;;;;;5091758;28;20176;-71
2022/11/25 03:20:54;;;;;;;4.68;1.90;;;10.30;99.90;;;;;;5059411;28;20196;-70
2022/11/25 03:23:23;;;;;;;3.27;1.53;;;10.30;99.90;;;;;;5054027;28;20164;-71
2022/11/25 03:25:48;;;;;;;4.90;2.07;;;10.40;99.90;;;;;;5088967;28;20165;-71
2022/11/25 03:28:16;;;;;;;4.55;1.90;;;10.40;99.90;;;;;;5090024;28;20245;-71
2022/11/25 03:30:42;;;;;;;4.47;1.80;;;10.40;99.90;;;;;;5090812;28;20180;-71
2022/11/25 03:33:08;;;;;;;5.93;1.75;;;10.40;99.90;;;;;;5057733;28;20249;-71
2022/11/25 03:35:34;;;;;;;5.68;1.70;;;10.40;99.90;;;;;;5091235;28;20189;-72
2022/11/25 03:38:00;;;;;;;4.03;1.73;;;10.40;99.90;;;;;;5092550;28;20179;-71
2022/11/25 03:40:25;;;;;;;4.93;1.75;;;10.40;99.90;;;;;;5059528;28;20192;-71
2022/11/25 03:42:55;;;;;;;5.20;1.90;;;10.50;99.90;;;;;;5060414;28;20168;-71
2022/11/25 03:45:23;;;;;;;3.60;1.80;;;10.40;99.90;;;;;;5092813;28;20177;-71
2022/11/25 03:47:49;;;;;;;5.00;1.90;;;10.40;99.90;;;;;;5095569;28;20220;-77
2022/11/25 03:50:15;;;;;;;5.18;1.95;;;10.50;99.90;;;;;;5093796;28;20207;-78
2022/11/25 03:52:41;;;;;;;6.57;1.90;;;10.40;99.90;;;;;;5093379;28;20172;-77
2022/11/25 03:55:11;;;;;;;4.30;1.90;;;10.40;99.90;;;;;;5094485;28;20172;-78
2022/11/25 03:57:37;;;;;;;3.28;1.60;;;10.40;99.90;;;;;;5061175;28;20192;-78
2022/11/25 04:00:06;;;;;;;3.65;1.83;;;10.40;99.90;;;;;;5092670;28;20188;-78
2022/11/25 04:02:34;;;;;;;5.78;1.92;;;10.40;99.90;;;;;;5061157;28;20235;-79
2022/11/25 04:04:59;;;;;;;3.65;1.58;;;10.40;99.90;;;;;;5097527;28;20210;-77
2022/11/25 04:07:25;;;;;;;3.43;1.43;;;10.40;99.90;;;;;;5059494;28;20285;-76
2022/11/25 04:09:50;;;;;;;3.03;1.40;;;10.50;99.90;;;;;;5091024;28;20170;-76
2022/11/25 04:15:00;;;;;;;2.88;1.40;;;10.50;99.90;;;;;;5075442;28;20254;-75
2022/11/25 04:17:26;;;;;;;3.65;1.70;;;10.50;99.90;;;;;;5091755;28;20268;-75
2022/11/25 04:19:53;;;;;;;4.70;1.52;;;10.50;99.90;;;;;;5059251;28;20184;-76
2022/11/25 04:22:22;;;;;;;4.00;1.73;;;10.50;99.90;;;;;;5092984;28;20351;-75
2022/11/25 04:24:49;;;;;;;4.78;1.60;;;10.40;99.90;;;;;;5093671;28;20168;-75
2022/11/25 04:27:15;;;;;;;2.63;1.40;;;10.50;99.90;;;;;;5093672;28;20185;-77
2022/11/25 04:29:41;;;;;;;2.63;1.33;;;10.50;99.90;;;;;;5097486;28;20247;-78
2022/11/25 04:32:06;;;;;;;5.07;1.80;;;10.50;99.90;;;;;;5061611;28;20233;-78
2022/11/25 04:34:32;;;;;;;3.10;1.50;;;10.50;99.90;;;;;;5095687;28;20176;-76
2022/11/25 04:36:57;;;;;;;5.47;2.17;;;10.50;99.90;;;;;;5092071;28;20184;-73
2022/11/25 04:39:23;;;;;;;4.43;1.70;;;10.60;99.90;;;;;;5098678;28;20218;-76
2022/11/25 04:41:49;;;;;;;7.10;2.05;;;10.60;99.90;;;;;;5059397;28;20204;-77
2022/11/25 04:44:14;;;;;;;6.88;2.10;;;10.50;99.90;;;;;;5060646;28;20181;-75
2022/11/25 04:46:44;;;;;;;6.60;3.35;;;10.50;99.90;;;;;;5093546;28;20191;-73
2022/11/25 04:49:10;;;;;;;10.75;5.82;;;10.40;99.90;;;;;;5060296;28;20263;-77
2022/11/25 04:51:38;;;;;;;8.07;3.97;;;10.40;99.90;;;;;;5094932;28;20271;-77
2022/11/25 04:54:03;;;;;;;8.10;2.70;;;10.40;99.90;;;;;;5056610;28;20185;-77
2022/11/25 04:56:29;;;;;;;5.47;2.47;;;10.40;99.90;;;;;;5063165;28;20179;-75
2022/11/25 05:01:43;;;;;;;7.30;2.90;;;10.30;99.90;;;;;;5079126;28;20207;-77
2022/11/25 05:04:11;;;;;;;10.70;6.53;;;10.20;99.90;;;;;;5093057;28;20263;-76
2022/11/25 05:06:37;;;;;;;6.00;3.73;;;10.20;99.90;;;;;;5091067;28;20187;-76
2022/11/25 05:09:05;;;;;;;5.90;2.93;;;10.20;99.90;;;;;;5092057;28;20177;-77
2022/11/25 05:11:33;;;;;;;5.63;2.67;;;10.10;99.90;;;;;;5091585;28;20185;-76
2022/11/25 05:13:58;;;;;;;7.63;2.67;;;10.10;99.90;;;;;;5090997;28;20187;-76
2022/11/25 05:16:24;;;;;;;5.40;2.07;;;10.10;99.90;;;;;;5091278;28;20177;-76
2022/11/25 05:18:50;;;;;;;5.83;2.07;;;10.00;99.90;;;;;;5076194;28;20214;-76
2022/11/25 05:21:18;;;;;;;4.60;1.70;;;10.00;99.90;;;;;;5094188;28;20283;-77
2022/11/25 05:23:45;;;;;;;4.20;1.70;;;9.90;99.90;;;;;;5091017;28;21177;-77
2022/11/25 05:26:16;;;;;;;3.90;1.90;;;9.90;99.90;;;;;;5057633;28;20188;-76
2022/11/25 05:28:43;;;;;;;4.43;1.80;;;10.00;99.90;;;;;;5089766;28;20192;-76
2022/11/25 05:31:12;;;;;;;5.27;2.20;;;9.90;99.90;;;;;;5055845;28;20264;-78
2022/11/25 05:33:37;;;;;;;6.03;2.57;;;9.90;99.90;;;;;;5090981;28;20172;-76
2022/11/25 05:36:04;;;;;;;3.30;2.03;;;9.90;99.90;;;;;;5091873;28;20196;-78
2022/11/25 05:38:29;;;;;;;5.63;1.90;;;9.90;99.90;;;;;;5059428;28;20184;-77
2022/11/25 05:41:04;;;;;;;5.60;2.17;;;9.90;99.90;;;;;;5058870;28;20212;-77
2022/11/25 05:43:35;;;;;;;6.00;1.90;;;9.90;99.90;;;;;;5096253;28;20180;-76
2022/11/25 05:46:05;;;;;;;5.03;1.90;;;9.90;99.90;;;;;;5090530;28;20234;-74
2022/11/25 05:48:31;;;;;;;6.50;3.57;;;9.90;99.90;;;;;;5093209;28;20180;-75
2022/11/25 05:51:07;;;;;;;18.67;11.40;;;9.90;99.90;;;;;;5091528;28;20199;-75
2022/11/25 05:53:36;;;;;;;9.33;5.07;;;9.90;99.90;;;;;;5092184;28;20180;-76
2022/11/25 05:56:04;;;;;;;6.47;3.30;;;10.00;99.90;;;;;;5092566;28;20184;-75
2022/11/25 05:58:31;;;;;;;6.47;3.20;;;9.90;99.90;;;;;;5090999;28;20206;-75
2022/11/25 06:00:59;;;;;;;3.97;2.43;;;9.90;99.90;;;;;;5090177;28;20200;-77
2022/11/25 06:03:26;;;;;;;4.85;2.40;;;9.90;99.90;;;;;;5058918;28;20410;-75
2022/11/25 06:05:56;;;;;;;4.40;2.10;;;9.90;99.90;;;;;;5059710;28;20185;-78
2022/11/25 06:08:22;;;;;;;4.03;1.90;;;9.90;99.90;;;;;;5090741;28;20176;-75
2022/11/25 06:10:47;;;;;;;5.63;2.17;;;9.90;99.90;;;;;;5058246;28;20195;-75
2022/11/25 06:13:15;;;;;;;3.73;1.87;;;10.00;99.90;;;;;;5058669;28;20184;-78
2022/11/25 06:15:43;;;;;;;4.97;1.83;;;9.90;99.90;;;;;;5091201;28;20264;-76
2022/11/25 06:18:13;;;;;;;4.00;1.70;;;9.90;99.90;;;;;;5056860;28;20233;-76
2022/11/25 06:20:39;;;;;;;5.17;1.80;;;9.90;99.90;;;;;;5084929;28;20237;-76
2022/11/25 06:23:05;;;;;;;4.53;1.60;;;10.00;99.90;;;;;;5090487;28;20168;-77
2022/11/25 06:25:30;;;;;;;3.93;1.77;;;9.90;99.90;;;;;;5059095;28;20313;-76
2022/11/25 06:27:59;;;;;;;3.63;1.57;;;9.90;99.90;;;;;;5091987;28;20191;-76
2022/11/25 06:30:27;;;;;;;4.90;1.80;;;9.90;99.90;;;;;;5090677;28;20188;-74
2022/11/25 06:32:56;;;;;;;3.33;1.73;;;9.90;99.90;;;;;;5056965;28;20169;-78
2022/11/25 06:35:21;;;;;;;4.60;1.80;;;9.90;99.90;;;;;;5090619;28;20173;-78
2022/11/25 06:37:49;;;;;;;6.50;1.90;;;10.00;99.90;;;;;;5058366;28;20219;-78
2022/11/25 06:40:15;;;;;;;4.53;1.80;;;10.00;99.90;;;;;;5055644;28;20242;-77
2022/11/25 06:42:42;;;;;;;5.90;2.03;;;9.90;99.90;;;;;;5091286;28;20196;-78
2022/11/25 06:45:08;;;;;;;4.83;1.77;;;10.00;99.90;;;;;;5090812;28;20234;-75
2022/11/25 06:47:33;;;;;;;3.67;1.73;;;10.00;99.90;;;;;;5091800;28;20176;-77
2022/11/25 06:49:59;;;;;;;4.40;2.00;;;10.00;99.90;;;;;;5057507;28;20199;-78
2022/11/25 06:52:27;;;;;;;2.90;1.53;;;9.90;99.90;;;;;;5090708;28;20187;-78
2022/11/25 06:54:52;;;;;;;3.30;1.67;;;10.00;99.90;;;;;;5097513;28;20179;-78
2022/11/25 06:57:18;;;;;;;4.20;2.20;;;9.90;99.90;;;;;;5061408;28;20184;-78
2022/11/25 06:59:44;;;;;;;4.38;1.90;;;10.00;99.90;;;;;;5056582;28;20172;-78
2022/11/25 07:02:13;;;;;;;3.40;1.73;;;10.00;99.90;;;;;;5091122;28;20200;-77
2022/11/25 07:04:39;;;;;;;5.73;2.13;;;10.00;99.90;;;;;;5090938;28;20222;-77
2022/11/25 07:07:05;;;;;;;4.30;1.90;;;10.00;99.90;;;;;;5091325;28;20422;-77
2022/11/25 07:09:31;;;;;;;3.97;2.00;;;10.00;99.90;;;;;;5057286;28;20176;-77
2022/11/25 07:11:58;;;;;;;3.43;2.00;;;10.00;99.90;;;;;;5090098;28;20199;-76
2022/11/25 07:14:24;;;;;;;6.33;2.13;;;10.00;99.90;;;;;;5093666;28;20176;-77
2022/11/25 07:16:50;;;;;;;4.03;2.00;;;10.00;99.90;;;;;;5095917;28;20183;-76
2022/11/25 07:19:17;;;;;;;3.80;2.07;;;10.00;99.90;;;;;;5061115;28;20217;-78
2022/11/25 07:21:45;;;;;;;5.10;1.93;;;10.00;99.90;;;;;;5062664;28;20196;-77
2022/11/25 07:24:13;;;;;;;3.83;1.87;;;10.00;99.90;;;;;;5094205;28;20267;-78
2022/11/25 07:26:40;;;;;;;4.37;2.03;;;10.00;99.90;;;;;;5061129;28;20173;-77
2022/11/25 07:29:09;;;;;;;7.53;2.37;;;10.00;99.90;;;;;;5093526;28;20176;-77
2022/11/25 07:31:40;;;;;;;4.43;2.37;;;10.10;99.90;;;;;;5061229;28;20249;-76
2022/11/25 07:34:13;;;;;;;5.43;2.60;;;10.00;99.90;;;;;;5093301;28;20204;-77
2022/11/25 07:36:40;;;;;;;4.70;2.10;;;9.90;99.90;;;;;;5095790;28;20210;-77
2022/11/25 07:39:11;;;;;;;4.40;2.20;;;9.90;99.90;;;;;;5096013;28;20199;-77
2022/11/25 07:41:37;;;;;;;5.70;2.97;;;9.90;99.90;;;;;;5060050;28;20216;-76
2022/11/25 07:44:06;;;;;;;6.07;4.10;;;9.80;99.90;;;;;;5094854;28;20277;-76
2022/11/25 07:46:40;;;;;;;6.27;3.07;;;9.80;99.90;;;;;;5065151;28;20188;-75
2022/11/25 07:49:13;;;;;;;9.33;2.50;;;9.70;99.90;;;;;;5063209;28;20184;-76
2022/11/25 07:51:53;;;;;;;6.70;2.80;;;9.70;99.90;;;;;;5088103;28;20176;-77
2022/11/25 07:54:22;;;;;;;6.23;2.90;;;9.60;99.90;;;;;;5060037;28;20180;-77
2022/11/25 07:56:49;;;;;;;4.77;2.50;;;9.60;99.90;;;;;;5094112;28;20219;-76
2022/11/25 07:59:20;;;;;;;5.40;2.23;;;9.60;99.90;;;;;;5093525;28;20172;-77
2022/11/25 08:01:49;;;;;;;5.47;2.33;;;9.50;99.90;;;;;;5092880;28;20200;-76
2022/11/25 08:04:15;;;;;;;5.97;2.20;;;9.50;99.90;;;;;;5092550;28;20207;-77
2022/11/25 08:06:45;;;;;;;6.10;2.50;;;9.50;99.90;;;;;;5093692;28;20192;-77
2022/11/25 08:09:19;;;;;;;6.40;2.50;;;9.50;99.90;;;;;;5064210;28;20176;-77
2022/11/25 08:11:48;;;;;;;5.37;2.30;;;9.50;99.90;;;;;;5093939;28;20172;-77
2022/11/25 08:14:14;;;;;;;3.67;2.10;;;9.50;99.90;;;;;;5094596;28;20180;-77
2022/11/25 08:16:42;;;;;;;4.97;2.43;;;9.60;99.90;;;;;;5059592;28;20251;-77
2022/11/25 08:19:13;;;;;;;6.37;2.33;;;9.60;99.90;;;;;;5059578;28;20181;-77
2022/11/25 08:21:39;;;;;;;6.40;2.80;;;9.70;99.90;;;;;;5093884;28;20200;-78
2022/11/25 08:24:05;;;;;;;4.03;2.17;;;9.70;99.90;;;;;;5094089;28;20200;-77
2022/11/25 08:26:37;;;;;;;6.33;2.50;;;9.70;99.90;;;;;;5091245;28;20177;-76
2022/11/25 08:29:04;;;;;;;5.00;2.00;;;9.80;99.90;;;;;;5094530;28;20184;-76
2022/11/25 08:31:35;;;;;;;4.33;2.40;;;9.80;99.90;;;;;;5097488;28;20187;-77
2022/11/25 08:34:04;;;;;;;3.87;1.83;;;9.80;99.90;;;;;;5058010;28;20172;-76
2022/11/25 08:36:30;;;;;;;5.70;2.30;;;9.90;99.90;;;;;;5091933;28;20219;-77
2022/11/25 08:38:58;;;;;;;3.80;1.80;;;9.90;99.90;;;;;;5058973;28;20238;-76
2022/11/25 08:41:26;;;;;;;3.37;1.80;;;9.90;99.90;;;;;;5093223;28;20283;-77
2022/11/25 08:43:52;;;;;;;3.50;1.70;;;9.90;99.90;;;;;;5058977;28;20424;-78
2022/11/25 08:46:25;;;;;;;3.00;1.50;;;10.00;99.90;;;;;;5095569;28;20183;-76
2022/11/25 08:48:53;;;;;;;3.33;1.70;;;10.00;99.90;;;;;;5069400;28;20173;-77
2022/11/25 08:51:26;;;;;;;2.07;1.40;;;10.10;99.90;;;;;;5097674;28;20195;-79
2022/11/25 08:53:54;;;;;;;4.17;1.70;;;10.20;99.90;;;;;;5093190;28;20180;-77
2022/11/25 08:56:21;;;;;;;3.43;1.50;;;10.40;99.90;;;;;;5093302;28;20184;-74
2022/11/25 08:58:50;;;;;;;1.97;1.57;;;10.60;99.90;;;;;;5094074;28;20241;-79
2022/11/25 09:01:19;;;;;;;3.35;1.55;;;10.90;99.90;;;;;;5093164;28;20192;-80
2022/11/25 09:03:51;;;;;;;1.90;1.20;;;11.20;99.90;;;;;;5092651;28;20210;-77
2022/11/25 09:06:17;;;;;;;3.88;1.40;;;11.50;99.90;;;;;;5058269;28;20253;-77
2022/11/25 09:08:45;;;;;;;2.75;1.30;;;11.90;99.90;;;;;;5058294;28;20173;-77
2022/11/25 09:11:12;;;;;;;2.75;1.60;;;12.20;99.90;;;;;;5093224;28;20275;-76
2022/11/25 09:13:40;;;;;;;2.95;1.40;;;12.50;99.90;;;;;;5096510;28;20196;-78
2022/11/25 09:16:06;;;;;;;3.42;1.48;;;12.80;99.90;;;;;;5092205;28;20180;-76
2022/11/25 09:18:32;;;;;;;2.92;1.45;;;13.10;99.90;;;;;;5095659;28;20177;-78
2022/11/25 09:20:58;;;;;;;3.72;1.70;;;13.30;99.90;;;;;;5092897;28;20196;-78
2022/11/25 09:23:24;;;;;;;3.38;1.80;;;13.50;99.90;;;;;;5092209;28;20176;-78
2022/11/25 09:25:52;;;;;;;3.08;1.85;;;13.70;99.90;;;;;;5064020;28;20177;-77
2022/11/25 09:28:18;;;;;;;3.83;2.00;;;13.90;99.90;;;;;;5091615;28;20175;-77
2022/11/25 09:30:46;;;;;;;4.57;1.85;;;14.00;99.90;;;;;;5093096;28;20208;-77
2022/11/25 09:33:12;;;;;;;2.92;1.60;;;14.10;99.90;;;;;;5075494;28;20176;-76
2022/11/25 09:35:37;;;;;;;3.22;1.70;;;14.20;99.90;;;;;;5093423;28;20183;-77
2022/11/25 09:38:05;;;;;;;4.57;2.08;;;14.30;99.90;;;;;;5092470;28;20202;-77
2022/11/25 09:40:52;;;;;;;3.75;1.70;;;14.30;99.90;;;;;;5090968;28;20188;-77
2022/11/25 09:46:54;;;;;;;3.50;1.70;;;14.40;99.90;;;;;;5076052;28;20187;-76
2022/11/25 09:49:19;;;;;;;3.15;1.60;;;14.50;99.90;;;;;;5058127;28;20173;-77
2022/11/25 09:51:54;;;;;;;5.35;2.05;;;14.60;99.90;;;;;;5057738;28;20187;-77
2022/11/25 09:54:27;;;;;;;2.03;1.48;;;14.60;99.90;;;;;;5060113;28;20179;-77
2022/11/25 09:57:02;;;;;;;5.03;1.80;;;14.70;99.90;;;;;;5058317;28;20206;-78
2022/11/25 09:59:31;;;;;;;3.72;1.45;;;14.70;99.90;;;;;;5072779;28;20165;-77
2022/11/25 10:02:10;;;;;;;4.32;1.52;;;14.80;99.90;;;;;;5090108;28;20196;-77
2022/11/25 10:04:45;;;;;;;4.93;1.33;;;14.80;99.90;;;;;;5091509;28;20275;-76
2022/11/25 10:07:19;;;;;;;4.50;1.50;;;14.80;99.90;;;;;;5057800;28;20294;-77
2022/11/25 10:09:50;;;;;;;3.42;1.73;;;14.80;99.90;;;;;;5057221;28;20211;-77
2022/11/25 10:12:24;;;;;;;3.50;1.58;;;14.80;99.90;;;;;;5090982;28;20173;-76
2022/11/25 10:15:08;;;;;;;2.83;1.30;;;14.80;99.90;;;;;;5091722;28;20281;-77
2022/11/25 10:17:52;;;;;;;4.57;1.65;;;14.80;99.90;;;;;;5090919;28;20165;-74
2022/11/25 10:20:29;;;;;;;6.22;1.50;;;14.80;99.90;;;;;;5091443;28;20254;-77
2022/11/25 10:23:08;;;;;;;4.13;1.33;;;14.80;99.90;;;;;;5092051;28;20195;-76
2022/11/25 10:25:38;;;;;;;2.88;1.48;;;14.70;99.90;;;;;;5057172;28;20176;-78
2022/11/25 10:28:16;;;;;;;3.42;1.20;;;14.70;99.90;;;;;;5095707;28;20168;-76
2022/11/25 10:31:05;;;;;;;5.50;1.33;;;14.70;99.90;;;;;;5089595;28;20172;-77
2022/11/25 10:33:44;;;;;;;4.13;1.65;;;14.80;99.90;;;;;;5056915;28;20185;-75
2022/11/25 10:36:16;;;;;;;2.20;1.05;;;14.80;99.90;;;;;;5058255;28;20190;-77
2022/11/25 10:38:54;;;;;;;2.88;1.33;;;14.80;99.90;;;;;;5061000;28;20176;-75
2022/11/25 10:41:23;;;;;;;5.00;1.52;;;14.80;99.90;;;;;;5092662;28;20211;-78
2022/11/25 10:43:51;;;;;;;3.90;1.40;;;14.80;99.90;;;;;;5099922;28;20180;-78
2022/11/25 10:46:42;;;;;;;4.07;1.30;;;14.80;99.90;;;;;;5059066;28;20224;-79
2022/11/25 10:49:28;;;;;;;3.75;1.50;;;14.90;99.90;;;;;;5091798;28;20176;-75
2022/11/25 10:51:56;;;;;;;3.42;1.20;;;14.90;99.90;;;;;;5056477;28;20173;-78
2022/11/25 10:54:27;;;;;;;3.38;1.33;;;15.00;99.90;;;;;;5057557;28;20259;-77
2022/11/25 10:56:57;;;;;;;3.92;1.60;;;15.00;99.90;;;;;;5091290;28;20183;-78
2022/11/25 10:59:35;;;;;;;4.90;1.40;;;15.00;99.90;;;;;;5057466;28;20172;-78
2022/11/25 11:02:23;;;;;;;5.22;1.35;;;15.10;99.90;;;;;;5056757;28;20196;-77
2022/11/25 11:04:57;;;;;;;5.85;1.70;;;15.10;99.90;;;;;;5057538;28;20212;-77
2022/11/25 11:07:27;;;;;;;4.57;1.52;;;15.10;99.90;;;;;;5090850;28;20176;-77
2022/11/25 11:10:14;;;;;;;5.28;1.60;;;15.10;99.90;;;;;;5091413;28;20217;-77
2022/11/25 11:13:24;;;;;;;4.47;1.30;;;15.10;99.90;;;;;;5091283;28;20211;-78
2022/11/25 11:15:52;;;;;;;4.15;1.75;;;15.10;99.90;;;;;;5081496;28;20208;-76
2022/11/25 11:18:23;;;;;;;4.88;1.55;;;15.20;99.90;;;;;;5089043;28;20180;-77
2022/11/25 11:20:57;;;;;;;4.38;1.52;;;15.30;99.90;;;;;;5058444;28;20180;-76
2022/11/25 11:23:24;;;;;;;4.00;1.40;;;15.30;99.90;;;;;;5056763;28;20260;-75
2022/11/25 11:26:00;;;;;;;7.53;1.50;;;15.20;99.90;;;;;;5092365;28;20264;-74
2022/11/25 11:28:40;;;;;;;5.93;1.80;;;15.10;99.90;;;;;;5092364;28;20179;-75
2022/11/25 11:31:33;;;;;;;6.22;1.60;;;15.00;99.90;;;;;;5057212;28;20183;-77
2022/11/25 11:34:07;;;;;;;5.03;1.45;;;14.80;99.90;;;;;;5056468;28;20199;-77
2022/11/25 11:36:51;;;;;;;4.65;1.40;;;14.70;99.90;;;;;;5059171;28;20183;-77
2022/11/25 11:39:59;;;;;;;5.20;1.25;;;14.70;99.90;;;;;;5088692;28;20249;-78
2022/11/25 11:42:34;;;;;;;5.93;1.45;;;14.70;99.90;;;;;;5089860;28;20205;-78
2022/11/25 11:45:12;;;;;;;4.10;1.30;;;14.90;99.90;;;;;;5092342;28;20373;-77
2022/11/25 11:48:12;;;;;;;5.32;1.42;;;15.10;99.90;;;;;;5090254;28;20169;-76
2022/11/25 11:50:45;;;;;;;5.18;1.58;;;15.40;99.90;;;;;;5060643;28;20255;-78
2022/11/25 11:53:32;;;;;;;9.77;2.25;;;15.50;99.90;;;;;;5057557;28;20187;-75
2022/11/25 11:56:00;;;;;;;6.72;1.80;;;15.70;99.90;;;;;;5090087;28;20185;-77
2022/11/25 11:58:37;;;;;;;6.47;1.75;;;15.80;99.90;;;;;;5055470;28;20180;-77
2022/11/25 12:01:35;;;;;;;4.20;1.60;;;15.90;99.90;;;;;;5091446;28;20219;-77
2022/11/25 12:04:33;;;;;;;5.80;1.48;;;16.10;99.90;;;;;;5094644;28;20179;-77
2022/11/25 12:07:07;;;;;;;6.60;1.83;;;16.10;99.90;;;;;;5092332;28;20176;-78
2022/11/25 12:09:42;;;;;;;4.55;1.40;;;16.10;99.90;;;;;;5058778;28;20173;-76
2022/11/25 12:12:12;;;;;;;6.13;1.63;;;16.20;99.90;;;;;;5092679;28;20176;-76
2022/11/25 12:14:44;;;;;;;5.75;1.67;;;16.20;99.90;;;;;;5092696;28;20191;-77
2022/11/25 12:17:18;;;;;;;4.85;1.30;;;16.10;99.90;;;;;;5094179;28;20180;-77
2022/11/25 12:20:02;;;;;;;4.68;1.52;;;16.00;99.90;;;;;;5059832;28;20269;-76
2022/11/25 12:22:41;;;;;;;7.90;1.88;;;15.90;99.90;;;;;;5093550;28;20204;-77
2022/11/25 12:25:16;;;;;;;6.75;1.88;;;15.70;99.90;;;;;;5059206;28;20172;-77
2022/11/25 12:27:49;;;;;;;5.47;1.48;;;15.50;99.90;;;;;;5058238;28;20200;-70
2022/11/25 12:30:16;;;;;;;8.80;2.08;;;15.40;99.90;;;;;;5060415;28;20180;-71
2022/11/25 12:33:06;;;;;;;4.43;1.50;;;15.20;99.90;;;;;;5061847;28;20242;-71
2022/11/25 12:36:17;;;;;;;6.18;1.63;;;15.10;99.90;;;;;;5059321;28;20176;-70
2022/11/25 12:38:48;;;;;;;7.05;1.60;;;15.10;99.90;;;;;;5061227;28;20213;-72
2022/11/25 12:41:26;;;;;;;5.63;1.70;;;15.10;99.90;;;;;;5058942;28;20205;-71
2022/11/25 12:44:45;;;;;;;6.93;2.17;;;15.10;99.90;;;;;;5060627;28;20179;-71
2022/11/25 12:47:13;;;;;;;4.40;1.80;;;15.10;99.90;;;;;;5005904;28;20234;-71
2022/11/25 12:49:47;;;;;;;7.28;1.90;;;15.00;99.90;;;;;;5058397;28;20282;-71
2022/11/25 12:52:42;;;;;;;4.25;1.23;;;15.00;99.90;;;;;;5061161;28;20179;-71
2022/11/25 12:55:18;;;;;;;8.73;2.33;;;14.90;99.90;;;;;;5092285;28;20247;-71
2022/11/25 12:58:12;;;;;;;7.45;2.08;;;14.80;99.90;;;;;;5059296;28;20230;-71
2022/11/25 13:00:52;;;;;;;6.68;1.60;;;14.80;99.90;;;;;;5059452;28;20193;-72
2022/11/25 13:03:52;;;;;;;6.47;1.80;;;14.80;99.90;;;;;;5093076;28;20187;-72
2022/11/25 13:06:50;;;;;;;3.97;1.40;;;14.90;99.90;;;;;;5057304;28;20195;-72
2022/11/25 13:09:33;;;;;;;4.70;1.70;;;15.00;99.90;;;;;;5095492;28;20176;-71
2022/11/25 13:12:21;;;;;;;4.47;1.55;;;15.00;99.90;;;;;;5096516;28;20259;-71
2022/11/25 13:15:19;;;;;;;3.53;1.30;;;15.10;99.90;;;;;;5059831;28;20176;-72
2022/11/25 13:17:48;;;;;;;5.07;1.63;;;15.30;99.90;;;;;;5054756;28;20195;-71
2022/11/25 13:20:25;;;;;;;4.03;1.65;;;15.40;99.90;;;;;;5058932;28;20270;-71
2022/11/25 13:23:03;;;;;;;7.63;1.95;;;15.50;99.90;;;;;;5093142;28;20198;-72
2022/11/25 13:25:33;;;;;;;7.55;1.55;;;15.60;99.90;;;;;;5091232;28;20177;-72